createdAt,value
2023-01-13T00:00:06.902Z,1.72
2023-01-13T00:01:10.758Z,1.53
2023-01-13T00:02:07.300Z,1.77
2023-01-13T00:03:03.847Z,1.78
2023-01-13T00:04:01.136Z,1.71
2023-01-13T00:04:57.770Z,1.58
2023-01-13T00:05:54.285Z,1.49
2023-01-13T00:06:50.798Z,1.43
2023-01-13T00:07:49.257Z,1.60
2023-01-13T00:08:48.410Z,1.43
2023-01-13T00:09:44.867Z,1.58
2023-01-13T00:10:41.315Z,1.50
2023-01-13T00:11:37.806Z,1.38
2023-01-13T00:12:34.264Z,1.35
2023-01-13T00:13:33.001Z,1.28
2023-01-13T00:14:30.202Z,1.27
2023-01-13T00:15:26.785Z,1.36
2023-01-13T00:16:23.337Z,1.49
2023-01-13T00:17:19.807Z,1.31
2023-01-13T00:18:16.233Z,1.18
2023-01-13T00:19:12.738Z,1.21
2023-01-13T00:20:10.122Z,1.31
2023-01-13T00:21:07.959Z,1.48
2023-01-13T00:22:04.457Z,1.55
2023-01-13T00:23:01.462Z,1.50
2023-01-13T00:23:57.909Z,1.51
2023-01-13T00:24:54.473Z,1.48
2023-01-13T00:25:50.912Z,1.51
2023-01-13T00:26:47.625Z,1.49
2023-01-13T00:27:44.117Z,1.55
2023-01-13T00:28:40.588Z,1.52
2023-01-13T00:29:37.035Z,1.51
2023-01-13T00:30:34.187Z,1.51
2023-01-13T00:31:30.758Z,1.51
2023-01-13T00:32:27.654Z,1.54
2023-01-13T00:33:24.420Z,1.54
2023-01-13T00:34:21.002Z,1.58
2023-01-13T00:35:17.462Z,1.55
2023-01-13T00:36:14.909Z,1.63
2023-01-13T00:37:14.667Z,1.62
2023-01-13T00:38:11.096Z,1.58
2023-01-13T00:39:07.529Z,1.55
2023-01-13T00:40:04.820Z,1.55
2023-01-13T00:41:02.568Z,1.45
2023-01-13T00:42:17.809Z,1.44
2023-01-13T00:43:23.062Z,1.46
2023-01-13T00:44:19.578Z,1.48
2023-01-13T00:45:16.104Z,1.52
2023-01-13T00:46:13.826Z,1.54
2023-01-13T00:47:10.317Z,1.51
2023-01-13T00:48:06.787Z,1.39
2023-01-13T00:49:03.269Z,1.40
2023-01-13T00:49:59.777Z,1.41
2023-01-13T00:50:56.994Z,1.37
2023-01-13T00:51:53.436Z,1.37
2023-01-13T00:52:49.908Z,1.35
2023-01-13T00:53:48.012Z,1.38
2023-01-13T00:54:44.514Z,1.30
2023-01-13T00:55:40.972Z,1.27
2023-01-13T00:56:40.526Z,1.29
2023-01-13T00:57:37.501Z,1.24
2023-01-13T00:58:34.833Z,1.27
2023-01-13T00:59:31.253Z,1.34
2023-01-13T01:00:27.712Z,1.33
2023-01-13T01:01:24.693Z,1.36
2023-01-13T01:02:21.315Z,1.39
2023-01-13T01:03:17.812Z,1.53
2023-01-13T01:04:14.233Z,1.71
2023-01-13T01:05:11.098Z,1.89
2023-01-13T01:06:07.538Z,1.73
2023-01-13T01:07:03.989Z,1.56
2023-01-13T01:08:00.477Z,1.58
2023-01-13T01:08:57.190Z,1.55
2023-01-13T01:09:53.685Z,1.60
2023-01-13T01:10:50.180Z,1.51
2023-01-13T01:11:46.614Z,1.51
2023-01-13T01:12:43.159Z,1.33
2023-01-13T01:13:39.742Z,1.31
2023-01-13T01:14:36.216Z,1.43
2023-01-13T01:15:32.829Z,1.47
2023-01-13T01:16:30.178Z,1.57
2023-01-13T01:17:27.912Z,1.48
2023-01-13T01:18:24.377Z,1.48
2023-01-13T01:19:20.808Z,1.44
2023-01-13T01:20:17.272Z,1.41
2023-01-13T01:21:14.522Z,1.41
2023-01-13T01:22:11.025Z,1.40
2023-01-13T01:23:07.455Z,1.33
2023-01-13T01:24:04.398Z,1.36
2023-01-13T01:25:00.974Z,1.43
2023-01-13T01:26:01.380Z,1.41
2023-01-13T01:26:57.898Z,1.37
2023-01-13T01:27:54.385Z,1.38
2023-01-13T01:28:50.986Z,1.38
2023-01-13T01:29:47.700Z,1.35
2023-01-13T01:30:44.170Z,1.34
2023-01-13T01:31:40.638Z,1.30
2023-01-13T01:32:37.097Z,1.32
2023-01-13T01:33:33.662Z,1.36
2023-01-13T01:34:30.223Z,1.54
2023-01-13T01:35:26.719Z,1.31
2023-01-13T01:36:26.178Z,1.11
2023-01-13T01:37:22.648Z,1.15
2023-01-13T01:38:21.238Z,1.12
2023-01-13T01:39:17.717Z,1.16
2023-01-13T01:40:14.205Z,1.12
2023-01-13T01:41:31.678Z,1.11
2023-01-13T01:42:46.568Z,1.08
2023-01-13T01:44:04.074Z,1.09
2023-01-13T01:45:12.139Z,1.04
2023-01-13T01:46:08.622Z,1.11
2023-01-13T01:47:05.240Z,1.09
2023-01-13T01:48:04.375Z,1.15
2023-01-13T01:49:03.497Z,1.14
2023-01-13T01:50:02.020Z,1.09
2023-01-13T01:50:58.485Z,1.10
2023-01-13T01:52:02.524Z,1.05
2023-01-13T01:53:02.662Z,1.03
2023-01-13T01:54:02.077Z,1.07
2023-01-13T01:55:16.419Z,1.10
2023-01-13T01:56:12.976Z,1.11
2023-01-13T01:57:10.241Z,1.01
2023-01-13T01:58:21.887Z,0.99
2023-01-13T01:59:18.687Z,1.02
2023-01-13T02:00:15.414Z,1.01
2023-01-13T02:01:12.592Z,0.99
2023-01-13T02:02:09.611Z,0.97
2023-01-13T02:03:07.335Z,0.96
2023-01-13T02:04:11.102Z,0.93
2023-01-13T02:05:07.722Z,0.94
2023-01-13T02:06:04.276Z,0.97
2023-01-13T02:07:01.419Z,0.97
2023-01-13T02:07:59.030Z,0.95
2023-01-13T02:08:55.617Z,0.94
2023-01-13T02:09:52.881Z,0.94
2023-01-13T02:10:53.017Z,0.93
2023-01-13T02:12:07.781Z,0.93
2023-01-13T02:13:06.340Z,0.95
2023-01-13T02:14:02.864Z,0.93
2023-01-13T02:15:04.593Z,0.97
2023-01-13T02:16:10.081Z,0.93
2023-01-13T02:17:15.393Z,0.96
2023-01-13T02:18:11.944Z,0.94
2023-01-13T02:19:08.380Z,0.92
2023-01-13T02:20:07.902Z,1.00
2023-01-13T02:21:19.719Z,1.00
2023-01-13T02:22:22.518Z,0.95
2023-01-13T02:23:37.455Z,1.02
2023-01-13T02:24:53.905Z,1.00
2023-01-13T02:26:03.398Z,0.99
2023-01-13T02:27:06.025Z,1.01
2023-01-13T02:28:12.704Z,0.99
2023-01-13T02:29:49.918Z,1.02
2023-01-13T02:31:28.599Z,0.98
2023-01-13T02:32:27.819Z,1.11
2023-01-13T02:33:27.306Z,1.16
2023-01-13T02:34:33.872Z,1.06
2023-01-13T02:35:39.553Z,1.27
2023-01-13T02:36:44.836Z,1.06
2023-01-13T02:37:45.569Z,1.07
2023-01-13T02:38:50.223Z,1.40
2023-01-13T02:39:59.621Z,1.40
2023-01-13T02:41:36.252Z,1.42
2023-01-13T02:42:52.139Z,1.52
2023-01-13T02:44:09.314Z,1.35
2023-01-13T02:45:06.026Z,1.30
2023-01-13T02:46:05.268Z,1.35
2023-01-13T02:47:01.858Z,1.59
2023-01-13T02:47:59.448Z,1.70
2023-01-13T02:48:57.979Z,1.43
2023-01-13T02:50:00.427Z,1.33
2023-01-13T02:50:59.879Z,1.38
2023-01-13T02:52:00.480Z,1.39
2023-01-13T02:53:03.431Z,1.40
2023-01-13T02:54:06.609Z,1.41
2023-01-13T02:55:08.293Z,1.29
2023-01-13T02:56:05.888Z,1.27
2023-01-13T02:57:03.020Z,1.35
2023-01-13T02:58:01.130Z,1.31
2023-01-13T02:58:57.952Z,1.52
2023-01-13T02:59:55.702Z,1.55
2023-01-13T03:00:52.532Z,1.34
2023-01-13T03:01:50.272Z,1.23
2023-01-13T03:02:48.122Z,1.19
2023-01-13T03:03:44.889Z,1.37
2023-01-13T03:04:49.015Z,1.49
2023-01-13T03:05:47.737Z,1.67
2023-01-13T03:06:59.744Z,1.62
2023-01-13T03:08:17.869Z,1.40
2023-01-13T03:09:15.073Z,1.23
2023-01-13T03:10:31.899Z,1.16
2023-01-13T03:11:32.686Z,1.62
2023-01-13T03:12:52.408Z,1.40
2023-01-13T03:14:13.101Z,1.23
2023-01-13T03:15:16.106Z,1.17
2023-01-13T03:16:31.511Z,1.23
2023-01-13T03:17:40.153Z,1.21
2023-01-13T03:18:52.568Z,1.24
2023-01-13T03:19:49.080Z,1.28
2023-01-13T03:20:54.266Z,1.28
2023-01-13T03:21:56.956Z,1.27
2023-01-13T03:23:05.333Z,1.18
2023-01-13T03:24:13.895Z,1.26
2023-01-13T03:25:22.669Z,1.22
2023-01-13T03:26:45.499Z,1.24
2023-01-13T03:27:45.139Z,1.31
2023-01-13T03:28:49.043Z,1.21
2023-01-13T03:29:50.868Z,1.39
2023-01-13T03:30:53.613Z,1.40
2023-01-13T03:31:56.185Z,1.55
2023-01-13T03:32:55.823Z,0.76
2023-01-13T03:33:56.332Z,1.38
2023-01-13T03:34:55.680Z,1.41
2023-01-13T03:35:55.594Z,1.47
2023-01-13T03:36:54.389Z,1.56
2023-01-13T03:37:54.394Z,1.51
2023-01-13T03:38:53.190Z,1.50
2023-01-13T03:39:53.213Z,1.46
2023-01-13T03:40:54.884Z,1.32
2023-01-13T03:41:57.279Z,1.25
2023-01-13T03:43:14.270Z,1.30
2023-01-13T03:44:34.135Z,1.33
2023-01-13T03:45:32.060Z,1.39
2023-01-13T03:47:04.247Z,1.57
2023-01-13T03:48:03.064Z,1.37
2023-01-13T03:49:03.099Z,1.38
2023-01-13T03:50:02.443Z,1.48
2023-01-13T03:51:04.959Z,1.39
2023-01-13T03:52:04.161Z,1.55
2023-01-13T03:53:15.759Z,1.56
2023-01-13T03:54:14.197Z,1.51
2023-01-13T03:55:15.777Z,1.77
2023-01-13T03:56:15.747Z,1.60
2023-01-13T03:57:14.589Z,1.51
2023-01-13T03:58:31.323Z,1.44
2023-01-13T03:59:31.083Z,1.35
2023-01-13T04:00:31.794Z,1.43
2023-01-13T04:01:42.477Z,1.40
2023-01-13T04:03:00.793Z,1.45
2023-01-13T04:04:01.896Z,1.45
2023-01-13T04:05:00.010Z,1.43
2023-01-13T04:06:00.045Z,1.41
2023-01-13T04:07:19.566Z,1.42
2023-01-13T04:08:21.724Z,1.63
2023-01-13T04:09:23.604Z,1.76
2023-01-13T04:10:23.821Z,1.58
2023-01-13T04:11:40.549Z,1.50
2023-01-13T04:13:00.896Z,1.43
2023-01-13T04:13:58.217Z,1.70
2023-01-13T04:14:55.905Z,1.53
2023-01-13T04:15:52.529Z,1.45
2023-01-13T04:16:49.209Z,1.44
2023-01-13T04:17:45.655Z,1.40
2023-01-13T04:18:42.138Z,1.33
2023-01-13T04:19:38.575Z,1.34
2023-01-13T04:20:37.876Z,1.42
2023-01-13T04:21:35.190Z,1.33
2023-01-13T04:22:31.678Z,1.20
2023-01-13T04:23:28.685Z,1.23
2023-01-13T04:24:25.333Z,1.25
2023-01-13T04:25:21.798Z,1.28
2023-01-13T04:26:19.721Z,1.29
2023-01-13T04:27:16.217Z,1.30
2023-01-13T04:28:13.208Z,1.20
2023-01-13T04:29:09.757Z,1.17
2023-01-13T04:30:06.909Z,1.25
2023-01-13T04:31:03.484Z,1.33
2023-01-13T04:31:59.990Z,1.24
2023-01-13T04:32:56.535Z,1.28
2023-01-13T04:33:52.985Z,1.29
2023-01-13T04:34:49.537Z,1.30
2023-01-13T04:35:46.563Z,1.28
2023-01-13T04:36:43.650Z,1.58
2023-01-13T04:37:40.193Z,1.51
2023-01-13T04:38:36.909Z,1.47
2023-01-13T04:39:33.428Z,1.47
2023-01-13T04:40:29.940Z,1.40
2023-01-13T04:41:26.385Z,1.43
2023-01-13T04:42:22.905Z,1.40
2023-01-13T04:43:19.461Z,1.50
2023-01-13T04:44:15.959Z,1.56
2023-01-13T04:45:12.822Z,1.71
2023-01-13T04:46:09.332Z,1.60
2023-01-13T04:47:05.792Z,1.48
2023-01-13T04:48:02.530Z,1.42
2023-01-13T04:48:59.075Z,1.43
2023-01-13T04:49:55.901Z,1.41
2023-01-13T04:50:52.403Z,1.47
2023-01-13T04:51:48.921Z,1.43
2023-01-13T04:52:48.750Z,1.43
2023-01-13T04:53:46.840Z,1.37
2023-01-13T04:54:44.464Z,1.37
2023-01-13T04:55:40.919Z,1.43
2023-01-13T04:56:37.417Z,1.45
2023-01-13T04:57:35.027Z,0.91
2023-01-13T04:58:31.518Z,1.48
2023-01-13T04:59:27.998Z,1.45
2023-01-13T05:00:24.525Z,1.44
2023-01-13T05:01:21.561Z,1.43
2023-01-13T05:02:21.224Z,1.40
2023-01-13T05:03:18.752Z,1.40
2023-01-13T05:04:15.642Z,1.33
2023-01-13T05:05:12.360Z,1.33
2023-01-13T05:06:08.902Z,1.34
2023-01-13T05:07:05.659Z,1.37
2023-01-13T05:08:02.136Z,1.41
2023-01-13T05:08:58.685Z,1.43
2023-01-13T05:09:55.216Z,1.62
2023-01-13T05:10:51.810Z,1.59
2023-01-13T05:12:06.645Z,1.58
2023-01-13T05:13:21.764Z,1.36
2023-01-13T05:14:36.630Z,1.21
2023-01-13T05:15:51.977Z,1.40
2023-01-13T05:17:02.609Z,1.84
2023-01-13T05:17:59.797Z,1.75
2023-01-13T05:18:56.405Z,1.59
2023-01-13T05:19:52.991Z,1.46
2023-01-13T05:20:49.952Z,1.33
2023-01-13T05:22:04.853Z,1.35
2023-01-13T05:23:19.855Z,1.36
2023-01-13T05:24:34.717Z,1.27
2023-01-13T05:25:31.386Z,1.21
2023-01-13T05:26:27.839Z,1.17
2023-01-13T05:27:24.279Z,1.20
2023-01-13T05:28:20.891Z,1.17
2023-01-13T05:29:17.334Z,1.07
2023-01-13T05:30:14.282Z,1.21
2023-01-13T05:31:12.132Z,1.28
2023-01-13T05:32:09.051Z,1.23
2023-01-13T05:33:05.529Z,1.21
2023-01-13T05:34:02.015Z,1.27
2023-01-13T05:34:58.475Z,1.20
2023-01-13T05:35:54.970Z,1.07
2023-01-13T05:36:51.502Z,1.17
2023-01-13T05:37:48.337Z,1.17
2023-01-13T05:38:44.793Z,1.37
2023-01-13T05:39:59.820Z,1.25
2023-01-13T05:41:17.119Z,1.22
2023-01-13T05:42:32.070Z,1.14
2023-01-13T05:43:29.111Z,1.19
2023-01-13T05:44:25.680Z,1.17
2023-01-13T05:45:22.300Z,1.08
2023-01-13T05:46:18.766Z,1.13
2023-01-13T05:47:15.189Z,1.16
2023-01-13T05:48:11.591Z,1.18
2023-01-13T05:49:08.102Z,1.13
2023-01-13T05:50:05.186Z,1.20
2023-01-13T05:51:02.369Z,1.11
2023-01-13T05:51:58.862Z,1.25
2023-01-13T05:52:55.371Z,1.30
2023-01-13T05:53:52.375Z,1.32
2023-01-13T05:54:48.836Z,1.30
2023-01-13T05:55:45.405Z,1.27
2023-01-13T05:56:41.906Z,1.28
2023-01-13T05:57:38.396Z,1.28
2023-01-13T05:58:34.909Z,1.27
2023-01-13T05:59:31.352Z,1.30
2023-01-13T06:00:27.838Z,1.28
2023-01-13T06:01:24.343Z,1.31
2023-01-13T06:02:20.936Z,1.32
2023-01-13T06:03:20.104Z,1.32
2023-01-13T06:04:16.742Z,1.34
2023-01-13T06:05:13.237Z,1.35
2023-01-13T06:06:09.707Z,1.37
2023-01-13T06:07:06.223Z,1.30
2023-01-13T06:08:03.851Z,1.27
2023-01-13T06:09:00.274Z,1.25
2023-01-13T06:09:56.722Z,1.18
2023-01-13T06:10:53.260Z,1.23
2023-01-13T06:11:49.736Z,1.25
2023-01-13T06:12:46.177Z,1.29
2023-01-13T06:13:43.414Z,1.28
2023-01-13T06:14:43.116Z,1.31
2023-01-13T06:15:39.626Z,1.33
2023-01-13T06:16:36.240Z,1.30
2023-01-13T06:17:32.786Z,1.26
2023-01-13T06:18:29.383Z,1.24
2023-01-13T06:19:25.971Z,1.23
2023-01-13T06:20:22.701Z,1.23
2023-01-13T06:21:19.359Z,1.22
2023-01-13T06:22:17.300Z,1.28
2023-01-13T06:23:13.980Z,1.27
2023-01-13T06:24:10.943Z,1.28
2023-01-13T06:25:14.133Z,1.26
2023-01-13T06:26:16.199Z,1.29
2023-01-13T06:27:14.546Z,1.24
2023-01-13T06:28:11.155Z,1.24
2023-01-13T06:29:09.124Z,1.29
2023-01-13T06:30:05.851Z,1.33
2023-01-13T06:31:04.718Z,1.29
2023-01-13T06:32:03.625Z,1.30
2023-01-13T06:33:02.571Z,1.38
2023-01-13T06:34:02.816Z,1.20
2023-01-13T06:35:05.304Z,1.17
2023-01-13T06:36:04.486Z,1.09
2023-01-13T06:37:01.547Z,1.13
2023-01-13T06:38:00.853Z,1.20
2023-01-13T06:38:58.841Z,1.37
2023-01-13T06:39:58.604Z,1.21
2023-01-13T06:40:55.285Z,1.15
2023-01-13T06:42:12.755Z,1.27
2023-01-13T06:43:16.599Z,1.29
2023-01-13T06:44:13.706Z,1.20
2023-01-13T06:45:10.466Z,1.23
2023-01-13T06:46:06.970Z,1.14
2023-01-13T06:47:04.029Z,1.13
2023-01-13T06:48:00.784Z,1.20
2023-01-13T06:48:57.249Z,1.31
2023-01-13T06:49:53.702Z,1.46
2023-01-13T06:50:50.226Z,1.46
2023-01-13T06:51:46.687Z,1.31
2023-01-13T06:52:43.396Z,1.24
2023-01-13T06:53:39.912Z,1.20
2023-01-13T06:54:36.431Z,1.17
2023-01-13T06:55:33.354Z,1.15
2023-01-13T06:56:29.863Z,1.15
2023-01-13T06:57:26.354Z,1.20
2023-01-13T06:58:22.874Z,1.27
2023-01-13T06:59:19.361Z,1.31
2023-01-13T07:00:16.133Z,1.34
2023-01-13T07:01:12.695Z,1.35
2023-01-13T07:02:09.328Z,1.31
2023-01-13T07:03:13.483Z,1.35
2023-01-13T07:04:13.754Z,1.43
2023-01-13T07:05:10.394Z,1.56
2023-01-13T07:06:07.067Z,1.54
2023-01-13T07:07:03.584Z,1.61
2023-01-13T07:08:00.138Z,1.51
2023-01-13T07:08:56.667Z,1.66
2023-01-13T07:09:53.090Z,1.61
2023-01-13T07:10:49.700Z,1.49
2023-01-13T07:11:46.823Z,1.46
2023-01-13T07:13:02.147Z,1.64
2023-01-13T07:14:17.119Z,1.63
2023-01-13T07:15:19.330Z,1.50
2023-01-13T07:16:15.838Z,1.56
2023-01-13T07:17:12.339Z,1.62
2023-01-13T07:18:08.813Z,1.64
2023-01-13T07:19:05.244Z,1.87
2023-01-13T07:20:01.759Z,1.80
2023-01-13T07:20:59.389Z,1.72
2023-01-13T07:21:55.889Z,1.88
2023-01-13T07:22:55.552Z,1.91
2023-01-13T07:23:52.263Z,1.80
2023-01-13T07:24:48.709Z,1.71
2023-01-13T07:25:45.195Z,1.80
2023-01-13T07:26:41.816Z,1.77
2023-01-13T07:27:38.552Z,1.77
2023-01-13T07:28:35.406Z,1.65
2023-01-13T07:29:32.169Z,1.76
2023-01-13T07:30:28.699Z,1.75
2023-01-13T07:31:26.066Z,1.95
2023-01-13T07:32:22.607Z,1.86
2023-01-13T07:33:19.222Z,2.11
2023-01-13T07:34:15.795Z,1.97
2023-01-13T07:35:12.292Z,1.92
2023-01-13T07:36:09.197Z,1.87
2023-01-13T07:37:05.721Z,1.74
2023-01-13T07:38:02.278Z,1.90
2023-01-13T07:39:02.052Z,2.07
2023-01-13T07:39:58.492Z,2.15
2023-01-13T07:40:55.080Z,2.29
2023-01-13T07:42:10.374Z,2.01
2023-01-13T07:43:25.303Z,2.19
2023-01-13T07:44:21.838Z,2.40
2023-01-13T07:45:18.281Z,2.59
2023-01-13T07:46:15.015Z,2.60
2023-01-13T07:47:11.589Z,2.61
2023-01-13T07:48:08.058Z,2.79
2023-01-13T07:49:04.923Z,2.58
2023-01-13T07:50:01.388Z,2.48
2023-01-13T07:51:01.568Z,2.56
2023-01-13T07:51:57.997Z,2.58
2023-01-13T07:52:57.695Z,2.69
2023-01-13T07:53:54.384Z,2.70
2023-01-13T07:54:50.922Z,2.83
2023-01-13T07:55:47.599Z,2.81
2023-01-13T07:56:44.073Z,2.87
2023-01-13T07:57:40.731Z,2.97
2023-01-13T07:58:37.682Z,3.03
2023-01-13T07:59:34.220Z,3.20
2023-01-13T08:00:30.740Z,3.24
2023-01-13T08:01:28.165Z,3.08
2023-01-13T08:02:25.050Z,3.00
2023-01-13T08:03:22.080Z,2.94
2023-01-13T08:04:18.690Z,2.89
2023-01-13T08:05:15.296Z,2.95
2023-01-13T08:06:12.181Z,3.07
2023-01-13T08:07:08.761Z,2.98
2023-01-13T08:08:05.319Z,3.07
2023-01-13T08:09:01.877Z,3.08
2023-01-13T08:09:58.360Z,3.18
2023-01-13T08:10:54.864Z,3.29
2023-01-13T08:12:13.777Z,3.36
2023-01-13T08:13:20.278Z,3.49
2023-01-13T08:14:16.954Z,3.40
2023-01-13T08:15:13.526Z,3.46
2023-01-13T08:16:11.094Z,3.54
2023-01-13T08:17:08.127Z,3.54
2023-01-13T08:18:04.621Z,3.51
2023-01-13T08:19:01.107Z,3.64
2023-01-13T08:19:57.646Z,3.56
2023-01-13T08:20:54.315Z,3.69
2023-01-13T08:21:50.764Z,3.47
2023-01-13T08:22:47.290Z,3.57
2023-01-13T08:23:44.596Z,3.59
2023-01-13T08:24:41.098Z,3.89
2023-01-13T08:25:37.624Z,3.59
2023-01-13T08:26:34.148Z,3.66
2023-01-13T08:27:30.622Z,3.81
2023-01-13T08:28:27.208Z,3.73
2023-01-13T08:29:23.739Z,3.88
2023-01-13T08:30:20.528Z,4.10
2023-01-13T08:31:20.093Z,4.26
2023-01-13T08:32:16.820Z,4.18
2023-01-13T08:33:13.373Z,4.23
2023-01-13T08:34:09.854Z,4.17
2023-01-13T08:35:06.782Z,4.08
2023-01-13T08:36:04.404Z,4.00
2023-01-13T08:37:00.906Z,4.05
2023-01-13T08:37:58.019Z,4.15
2023-01-13T08:38:54.618Z,4.13
2023-01-13T08:39:51.137Z,4.20
2023-01-13T08:40:47.669Z,4.03
2023-01-13T08:41:56.603Z,4.30
2023-01-13T08:42:55.063Z,4.41
2023-01-13T08:43:53.452Z,4.39
2023-01-13T08:44:49.917Z,4.33
2023-01-13T08:45:46.570Z,4.21
2023-01-13T08:46:43.763Z,4.43
2023-01-13T08:47:40.306Z,4.27
2023-01-13T08:48:37.100Z,4.30
2023-01-13T08:49:33.619Z,4.31
2023-01-13T08:50:30.099Z,4.40
2023-01-13T08:51:26.650Z,4.46
2023-01-13T08:52:23.320Z,4.57
2023-01-13T08:53:20.121Z,4.91
2023-01-13T08:54:17.333Z,4.86
2023-01-13T08:55:13.924Z,4.66
2023-01-13T08:56:11.848Z,4.63
2023-01-13T08:57:08.445Z,4.82
2023-01-13T08:58:15.237Z,5.11
2023-01-13T08:59:13.655Z,5.19
2023-01-13T09:00:10.562Z,5.32
2023-01-13T09:01:08.785Z,5.23
2023-01-13T09:02:12.739Z,4.99
2023-01-13T09:03:09.357Z,4.91
2023-01-13T09:04:06.209Z,4.69
2023-01-13T09:05:04.037Z,4.98
2023-01-13T09:06:00.511Z,5.23
2023-01-13T09:06:57.183Z,5.17
2023-01-13T09:07:53.654Z,4.92
2023-01-13T09:08:50.230Z,5.20
2023-01-13T09:09:46.721Z,4.98
2023-01-13T09:10:43.271Z,5.18
2023-01-13T09:12:00.604Z,5.20
2023-01-13T09:13:12.151Z,5.17
2023-01-13T09:14:08.741Z,4.77
2023-01-13T09:15:06.409Z,4.81
2023-01-13T09:16:02.963Z,4.69
2023-01-13T09:17:00.002Z,4.81
2023-01-13T09:17:56.497Z,4.81
2023-01-13T09:18:52.955Z,4.98
2023-01-13T09:19:50.635Z,4.94
2023-01-13T09:20:47.144Z,4.70
2023-01-13T09:21:43.687Z,4.61
2023-01-13T09:22:40.783Z,4.61
2023-01-13T09:23:37.260Z,4.68
2023-01-13T09:24:33.868Z,5.01
2023-01-13T09:25:30.901Z,4.96
2023-01-13T09:26:27.374Z,4.70
2023-01-13T09:27:24.029Z,4.65
2023-01-13T09:28:20.525Z,4.90
2023-01-13T09:29:17.316Z,5.37
2023-01-13T09:30:14.062Z,5.17
2023-01-13T09:31:10.553Z,4.87
2023-01-13T09:32:07.279Z,4.47
2023-01-13T09:33:22.566Z,4.27
2023-01-13T09:34:38.507Z,4.76
2023-01-13T09:35:36.077Z,4.80
2023-01-13T09:36:32.617Z,4.62
2023-01-13T09:37:30.933Z,4.45
2023-01-13T09:38:27.537Z,4.48
2023-01-13T09:39:24.142Z,4.41
2023-01-13T09:40:22.786Z,4.46
2023-01-13T09:41:38.667Z,4.43
2023-01-13T09:43:11.283Z,4.61
2023-01-13T09:44:10.213Z,4.63
2023-01-13T09:45:09.074Z,4.63
2023-01-13T09:46:32.422Z,4.87
2023-01-13T09:47:34.814Z,4.92
2023-01-13T09:48:51.979Z,4.50
2023-01-13T09:49:48.956Z,4.54
2023-01-13T09:50:48.391Z,4.56
2023-01-13T09:51:48.803Z,4.81
2023-01-13T09:52:45.319Z,4.61
2023-01-13T09:53:51.033Z,4.41
2023-01-13T09:55:11.488Z,4.61
2023-01-13T09:56:10.564Z,4.73
2023-01-13T09:57:13.211Z,4.39
2023-01-13T09:58:15.122Z,4.55
2023-01-13T09:59:12.276Z,4.74
2023-01-13T10:00:13.934Z,4.67
2023-01-13T10:01:24.054Z,4.43
2023-01-13T10:02:20.516Z,4.58
2023-01-13T10:03:21.720Z,4.69
2023-01-13T10:04:18.539Z,4.82
2023-01-13T10:05:20.831Z,4.82
2023-01-13T10:06:19.857Z,4.71
2023-01-13T10:07:16.573Z,4.24
2023-01-13T10:08:24.576Z,4.39
2023-01-13T10:09:24.204Z,4.70
2023-01-13T10:10:42.120Z,4.58
2023-01-13T10:11:59.127Z,4.73
2023-01-13T10:13:14.128Z,4.70
2023-01-13T10:14:10.650Z,4.74
2023-01-13T10:15:13.444Z,4.76
2023-01-13T10:16:19.113Z,4.96
2023-01-13T10:17:21.145Z,4.94
2023-01-13T10:18:36.075Z,4.78
2023-01-13T10:19:43.995Z,4.77
2023-01-13T10:20:56.084Z,4.79
2023-01-13T10:22:02.963Z,4.33
2023-01-13T10:23:02.427Z,4.10
2023-01-13T10:24:03.950Z,4.38
2023-01-13T10:25:26.730Z,4.62
2023-01-13T10:26:26.966Z,4.08
2023-01-13T10:27:27.925Z,3.91
2023-01-13T10:28:25.462Z,4.27
2023-01-13T10:29:26.365Z,4.55
2023-01-13T10:30:32.434Z,4.79
2023-01-13T10:31:29.073Z,4.86
2023-01-13T10:32:25.673Z,5.04
2023-01-13T10:33:26.947Z,4.42
2023-01-13T10:34:25.836Z,4.78
2023-01-13T10:35:43.177Z,4.73
2023-01-13T10:36:46.766Z,4.86
2023-01-13T10:37:55.486Z,4.67
2023-01-13T10:38:52.340Z,4.51
2023-01-13T10:39:49.228Z,4.66
2023-01-13T10:40:50.288Z,4.54
2023-01-13T10:41:46.742Z,4.40
2023-01-13T10:42:43.230Z,4.14
2023-01-13T10:43:39.894Z,4.37
2023-01-13T10:44:47.356Z,4.19
2023-01-13T10:45:52.698Z,3.90
2023-01-13T10:46:54.052Z,3.84
2023-01-13T10:48:05.322Z,3.75
2023-01-13T10:49:03.543Z,3.70
2023-01-13T10:50:00.013Z,3.92
2023-01-13T10:50:56.627Z,4.09
2023-01-13T10:51:53.083Z,4.02
2023-01-13T10:53:00.231Z,4.29
2023-01-13T10:54:01.787Z,4.58
2023-01-13T10:54:58.475Z,4.81
2023-01-13T10:55:59.681Z,4.81
2023-01-13T10:57:18.329Z,4.28
2023-01-13T10:58:18.941Z,4.22
2023-01-13T10:59:23.384Z,4.41
2023-01-13T11:00:27.731Z,4.44
2023-01-13T11:01:26.167Z,4.27
2023-01-13T11:02:30.867Z,4.30
2023-01-13T11:03:35.486Z,3.98
2023-01-13T11:04:36.869Z,4.23
2023-01-13T11:05:33.738Z,4.30
2023-01-13T11:06:31.075Z,4.14
2023-01-13T11:07:28.436Z,4.22
2023-01-13T11:08:26.658Z,4.49
2023-01-13T11:09:25.241Z,4.47
2023-01-13T11:10:21.971Z,4.70
2023-01-13T11:11:27.841Z,4.86
2023-01-13T11:12:30.935Z,5.04
2023-01-13T11:14:03.901Z,4.90
2023-01-13T11:15:05.940Z,4.65
2023-01-13T11:16:14.262Z,4.45
2023-01-13T11:17:16.268Z,4.50
2023-01-13T11:18:35.982Z,4.56
2023-01-13T11:19:33.661Z,4.33
2023-01-13T11:20:33.874Z,4.30
2023-01-13T11:21:36.660Z,4.39
2023-01-13T11:22:37.099Z,4.54
2023-01-13T11:23:42.467Z,4.73
2023-01-13T11:24:40.087Z,4.69
2023-01-13T11:25:44.012Z,4.65
2023-01-13T11:27:07.501Z,5.00
2023-01-13T11:28:06.575Z,5.42
2023-01-13T11:29:11.294Z,5.41
2023-01-13T11:30:16.377Z,5.22
2023-01-13T11:31:12.979Z,5.26
2023-01-13T11:32:12.233Z,5.25
2023-01-13T11:33:15.192Z,5.29
2023-01-13T11:34:25.529Z,5.38
2023-01-13T11:35:22.392Z,5.26
2023-01-13T11:36:24.962Z,5.21
2023-01-13T11:37:24.491Z,5.36
2023-01-13T11:38:34.046Z,5.30
2023-01-13T11:39:48.769Z,5.48
2023-01-13T11:40:49.479Z,5.50
2023-01-13T11:42:12.816Z,5.46
2023-01-13T11:43:32.303Z,5.41
2023-01-13T11:44:34.332Z,5.63
2023-01-13T11:45:53.868Z,5.86
2023-01-13T11:46:51.590Z,6.06
2023-01-13T11:47:49.551Z,5.73
2023-01-13T11:48:46.206Z,5.82
2023-01-13T11:49:48.534Z,5.72
2023-01-13T11:50:48.321Z,5.84
2023-01-13T11:51:55.529Z,5.84
2023-01-13T11:53:12.082Z,6.30
2023-01-13T11:54:22.614Z,6.03
2023-01-13T11:55:22.836Z,6.10
2023-01-13T11:56:27.249Z,6.16
2023-01-13T11:57:23.788Z,6.62
2023-01-13T11:58:33.827Z,6.40
2023-01-13T11:59:44.251Z,6.41
2023-01-13T12:00:40.793Z,6.51
2023-01-13T12:01:56.217Z,6.50
2023-01-13T12:03:07.815Z,6.55
2023-01-13T12:04:22.758Z,6.56
2023-01-13T12:05:24.217Z,6.18
2023-01-13T12:06:34.685Z,6.15
2023-01-13T12:07:34.242Z,6.21
2023-01-13T12:08:30.807Z,6.01
2023-01-13T12:09:36.607Z,6.23
2023-01-13T12:10:48.298Z,6.41
2023-01-13T12:12:15.523Z,6.08
2023-01-13T12:13:20.963Z,5.36
2023-01-13T12:14:30.946Z,5.17
2023-01-13T12:15:27.375Z,5.27
2023-01-13T12:16:28.557Z,5.19
2023-01-13T12:17:30.303Z,5.54
2023-01-13T12:18:26.804Z,5.72
2023-01-13T12:19:27.885Z,5.56
2023-01-13T12:20:42.749Z,5.81
2023-01-13T12:21:48.045Z,5.50
2023-01-13T12:22:46.792Z,5.54
2023-01-13T12:23:43.245Z,5.43
2023-01-13T12:24:39.738Z,5.23
2023-01-13T12:25:47.321Z,5.39
2023-01-13T12:26:46.485Z,5.50
2023-01-13T12:28:15.519Z,5.53
2023-01-13T12:29:19.180Z,5.61
2023-01-13T12:30:18.556Z,5.40
2023-01-13T12:31:18.805Z,5.32
2023-01-13T12:32:20.987Z,5.56
2023-01-13T12:33:20.588Z,5.43
2023-01-13T12:34:25.390Z,5.38
2023-01-13T12:35:24.567Z,5.48
2023-01-13T12:36:39.551Z,5.44
2023-01-13T12:37:36.015Z,5.25
2023-01-13T12:38:48.023Z,5.20
2023-01-13T12:40:03.050Z,5.09
2023-01-13T12:41:11.627Z,5.40
2023-01-13T12:42:29.669Z,5.65
2023-01-13T12:43:44.663Z,5.45
2023-01-13T12:44:59.641Z,5.33
2023-01-13T12:46:16.144Z,5.20
2023-01-13T12:47:32.645Z,5.09
2023-01-13T12:48:49.338Z,5.20
2023-01-13T12:49:47.271Z,4.90
2023-01-13T12:50:43.915Z,4.99
2023-01-13T12:51:52.712Z,4.79
2023-01-13T12:52:49.839Z,4.69
2023-01-13T12:53:46.417Z,4.67
2023-01-13T12:55:01.375Z,4.72
2023-01-13T12:56:16.719Z,4.97
2023-01-13T12:57:16.303Z,5.04
2023-01-13T12:58:12.758Z,4.84
2023-01-13T12:59:21.467Z,4.78
2023-01-13T13:00:18.281Z,5.04
2023-01-13T13:01:15.204Z,4.97
2023-01-13T13:02:11.931Z,4.92
2023-01-13T13:03:12.286Z,4.92
2023-01-13T13:04:17.285Z,4.68
2023-01-13T13:05:25.471Z,4.62
2023-01-13T13:06:29.488Z,4.62
2023-01-13T13:07:31.877Z,4.75
2023-01-13T13:08:43.681Z,4.60
2023-01-13T13:09:49.437Z,4.73
2023-01-13T13:11:04.297Z,4.75
2023-01-13T13:12:39.592Z,4.74
2023-01-13T13:13:47.095Z,4.72
2023-01-13T13:14:44.240Z,4.46
2023-01-13T13:15:43.078Z,4.48
2023-01-13T13:16:53.002Z,4.40
2023-01-13T13:18:28.484Z,4.51
2023-01-13T13:19:25.343Z,4.77
2023-01-13T13:20:40.773Z,4.70
2023-01-13T13:22:03.126Z,4.88
2023-01-13T13:22:59.764Z,4.80
2023-01-13T13:23:56.364Z,4.54
2023-01-13T13:24:55.854Z,4.63
2023-01-13T13:26:00.100Z,4.59
2023-01-13T13:26:56.611Z,4.46
2023-01-13T13:28:00.602Z,4.62
2023-01-13T13:29:12.489Z,4.41
2023-01-13T13:30:11.790Z,4.42
2023-01-13T13:31:17.261Z,4.36
2023-01-13T13:32:22.647Z,4.38